Flight Track Log - Related Links

Times and Time Zones

All times are in EDT time to prevent confusion due to time zone crossing. See the CRQ922 flight status page for this flight to view local times or setup timezone preferences in your user account.

Time Position Orientation Groundspeed Altitude Reporting Facility
EDT Latitude Longitude Course Direction KTS MPH feet Rate Location/Type
Tue 04:13:32 PM 50.6167 -78.5333 180° South 180 207 17,100  Level Montreal Center
Tue 04:14:32 PM 50.5667 -78.5333 180° South 200 230 17,400 400 Climbing Montreal Center
Tue 04:15:32 PM 50.5000 -78.5000 162° South 200 230 17,900 550 Climbing Montreal Center
Tue 04:16:32 PM 50.4500 -78.5000 180° South 190 219 18,500 550 Climbing Montreal Center
Tue 04:17:32 PM 50.4000 -78.4667 157° South 190 219 19,000 500 Climbing Montreal Center
Tue 04:18:32 PM 50.3500 -78.4667 180° South 180 207 19,500 450 Climbing Montreal Center
Tue 04:19:32 PM 50.3000 -78.4333 157° South 180 207 19,900 250 Climbing Montreal Center
Tue 04:20:32 PM 50.2500 -78.4333 180° South 190 219 20,000 50 Climbing Montreal Center
Tue 04:21:32 PM 50.2000 -78.4167 168° South 200 230 20,000  Level Montreal Center
Tue 04:22:32 PM 50.1500 -78.4000 168° South 210 242 20,000  Level Montreal Center
Tue 04:23:32 PM 50.0833 -78.3833 171° South 210 242 20,000  Level Montreal Center
Tue 04:24:32 PM 50.0167 -78.3500 162° South 220 253 20,000  Level Montreal Center
Tue 04:25:32 PM 49.9667 -78.3500 180° South 220 253 20,000  Level Montreal Center
Tue 04:26:32 PM 49.9000 -78.3167 162° South 220 253 20,000  Level Montreal Center
Tue 04:27:32 PM 49.8333 -78.3167 180° South 220 253 20,000  Level Montreal Center
Tue 04:28:32 PM 49.7833 -78.2833 157° South 220 253 20,000  Level Montreal Center
Tue 04:30:32 PM 49.6667 -78.2500 170° South 220 253 20,000  Level Montreal Center
Tue 04:31:32 PM 49.6000 -78.2167 162° South 220 253 20,000  Level Montreal Center
Tue 04:32:32 PM 49.5333 -78.2167 180° South 230 265 20,000  Level Montreal Center
Tue 04:33:32 PM 49.4667 -78.1833 162° South 240 276 20,000  Level Montreal Center
Tue 04:34:32 PM 49.4167 -78.1833 180° South 230 265 20,000  Level Montreal Center
Tue 04:36:32 PM 49.3000 -78.1500 169° South 210 242 20,000  Level Montreal Center
Tue 04:37:32 PM 49.2333 -78.1333 171° South 240 276 20,000  Level Montreal Center
Tue 04:38:32 PM 49.1667 -78.1000 162° South 240 276 20,000  Level Montreal Center
Tue 04:39:32 PM 49.1000 -78.1000 180° South 230 265 20,000 -500 Level Montreal Center
Tue 04:40:32 PM 49.0500 -78.0667 156° South 190 219 19,000 -1,150 Descending Montreal Center
Tue 04:41:32 PM 48.9667 -78.0333 165° South 260 299 17,700 -1,450 Descending Montreal Center
Tue 04:42:32 PM 48.8833 -78.0333 180° South 290 334 16,100 -1,500 Descending Montreal Center
Tue 04:43:32 PM 48.8167 -78.0000 162° South 280 322 14,700 -954 Descending Montreal Center
Tue 04:57:38 PM 45.6333 -73.3000 162° South 360 414 1,700 -922 Descending Montreal Center
Tue 04:58:00 PM 48.0533 -77.7828 162° South  Level Estimated
Tue 04:59:00 PM 48.0533 -77.7828 162° South  Level Estimated
Tue 04:59:00 PM 45.7034 -73.4200 310° West  Level Estimated
Tue 05:00:00 PM 48.0533 -77.7828 162° South  Level Estimated
Tue 05:01:00 PM 48.0533 -77.7828 162° South  Level Estimated
Tue 05:02:00 PM 48.0533 -77.7828 162° South  Level Estimated
Tue 05:06:00 PM 46.0600 -74.0394 310° West  Level Estimated
Tue 05:07:00 PM 46.1106 -74.1285 309° West  Level Estimated
Tue 05:08:00 PM 46.1613 -74.2178 309° West  Level Estimated
Tue 05:09:00 PM 46.2118 -74.3073 309° West  Level Estimated
Tue 05:10:00 PM 46.2622 -74.3969 309° West  Level Estimated
Tue 05:11:00 PM 46.3126 -74.4867 309° West  Level Estimated
Tue 05:12:00 PM 46.3630 -74.5767 309° West  Level Estimated
Tue 05:13:00 PM 46.4132 -74.6668 309° West  Level Estimated
Tue 05:14:00 PM 46.4634 -74.7571 309° West  Level Estimated
Tue 05:15:00 PM 46.5135 -74.8475 309° West  Level Estimated
Tue 05:16:00 PM 46.5635 -74.9382 309° West  Level Estimated
Tue 05:17:00 PM 46.6135 -75.0290 309° West  Level Estimated
Tue 05:18:00 PM 46.6634 -75.1199 309° West  Level Estimated
Tue 05:19:00 PM 46.7132 -75.2111 309° West  Level Estimated
Tue 05:20:00 PM 46.7630 -75.3024 309° West  Level Estimated
Tue 05:21:00 PM 46.8127 -75.3938 308° West  Level Estimated
Tue 05:22:00 PM 46.8623 -75.4855 308° West  Level Estimated
Tue 05:23:00 PM 46.9118 -75.5772 308° West  Level Estimated
Tue 05:24:00 PM 46.9613 -75.6692 308° West  Level Estimated
Tue 05:25:00 PM 47.0107 -75.7614 308° West  Level Estimated
Tue 05:26:00 PM 47.0600 -75.8537 308° West  Level Estimated
Tue 05:27:00 PM 47.1092 -75.9462 308° West  Level Estimated
Tue 05:28:00 PM 47.1584 -76.0388 308° West  Level Estimated
Tue 05:29:00 PM 47.2074 -76.1317 308° West  Level Estimated
Tue 05:30:00 PM 47.2565 -76.2246 308° West  Level Estimated
Tue 05:31:00 PM 47.3054 -76.3178 308° West  Level Estimated
Tue 05:32:00 PM 47.3543 -76.4112 308° West  Level Estimated
Tue 05:33:00 PM 47.4030 -76.5047 308° West  Level Estimated
Tue 05:34:00 PM 47.4517 -76.5984 308° West  Level Estimated
Tue 05:35:00 PM 47.5004 -76.6922 308° West  Level Estimated
Tue 05:36:00 PM 47.5489 -76.7863 307° West  Level Estimated
Tue 05:37:00 PM 47.5974 -76.8805 307° West  Level Estimated
Tue 05:38:00 PM 47.6458 -76.9749 307° West  Level Estimated
Tue 05:39:00 PM 47.6941 -77.0694 307° West  Level Estimated
Tue 05:40:00 PM 47.7424 -77.1641 307° West  Level Estimated
Tue 05:41:00 PM 47.7905 -77.2591 307° West  Level Estimated
Tue 05:42:00 PM 47.8386 -77.3541 307° West  Level Estimated
Tue 05:43:00 PM 47.8866 -77.4494 307° West  Level Estimated

Login

Don't have an account? Register now (free) for customized features, flight alerts, and more!